createdAt,value
2019-04-10T00:00:55.118Z,100216.66
2019-04-10T00:03:31.847Z,100219.59
2019-04-10T00:05:52.742Z,100216.28
2019-04-10T00:08:20.516Z,100217.72
2019-04-10T00:10:48.251Z,100213.37
2019-04-10T00:13:16.026Z,100216.30
2019-04-10T00:15:43.778Z,100209.70
2019-04-10T00:18:11.635Z,100215.95
2019-04-10T00:20:39.430Z,100220.66
2019-04-10T00:23:08.934Z,100215.00
2019-04-10T00:25:37.076Z,100218.68
2019-04-10T00:28:05.311Z,100219.52
2019-04-10T00:30:33.349Z,100219.47
2019-04-10T00:33:01.146Z,100222.98
2019-04-10T00:35:29.738Z,100223.53
2019-04-10T00:37:57.575Z,100218.12
2019-04-10T00:40:25.627Z,100220.19
2019-04-10T00:45:21.718Z,100223.94
2019-04-10T00:47:49.546Z,100215.27
2019-04-10T00:50:18.182Z,100223.78
2019-04-10T00:52:46.207Z,100225.07
2019-04-10T00:55:13.997Z,100219.91
2019-04-10T00:57:41.734Z,100216.09
2019-04-10T01:00:09.801Z,100219.27
2019-04-10T01:02:37.664Z,100225.41
2019-04-10T01:05:05.601Z,100223.95
2019-04-10T01:07:39.429Z,100225.98
2019-04-10T01:10:04.358Z,100225.22
2019-04-10T01:12:32.131Z,100227.44
2019-04-10T01:15:00.261Z,100227.75
2019-04-10T01:17:28.552Z,100226.48
2019-04-10T01:19:56.551Z,100225.22
2019-04-10T01:22:25.316Z,100227.25
2019-04-10T01:24:54.338Z,100222.67
2019-04-10T01:27:22.241Z,100220.80
2019-04-10T01:29:50.003Z,100224.58
2019-04-10T01:32:17.728Z,100229.05
2019-04-10T01:34:45.549Z,100223.48
2019-04-10T01:37:13.442Z,100223.36
2019-04-10T01:39:42.262Z,100226.91
2019-04-10T01:42:10.050Z,100227.75
2019-04-10T01:44:38.568Z,100229.85
2019-04-10T01:47:06.773Z,100231.95
2019-04-10T01:49:34.638Z,100229.01
2019-04-10T01:52:02.381Z,100222.48
2019-04-10T01:54:31.120Z,100222.41
2019-04-10T01:56:59.715Z,100225.67
2019-04-10T01:59:29.902Z,100215.47
2019-04-10T02:02:05.463Z,100221.96
2019-04-10T02:04:33.204Z,100228.41
2019-04-10T02:07:02.081Z,100227.68
2019-04-10T02:09:29.866Z,100226.59
2019-04-10T02:11:58.522Z,100225.41
2019-04-10T02:14:26.352Z,100222.19
2019-04-10T02:16:54.897Z,100214.58
2019-04-10T02:19:23.852Z,100222.56
2019-04-10T02:21:51.893Z,100220.30
2019-04-10T02:24:19.634Z,100223.73
2019-04-10T02:26:47.739Z,100210.33
2019-04-10T02:29:15.607Z,100210.49
2019-04-10T02:31:44.216Z,100212.69
2019-04-10T02:34:12.900Z,100211.85
2019-04-10T02:36:42.419Z,100212.41
2019-04-10T02:39:20.640Z,100208.31
2019-04-10T02:41:41.422Z,100206.48
2019-04-10T02:44:10.237Z,100206.23
2019-04-10T02:46:38.857Z,100204.62
2019-04-10T02:49:08.117Z,100205.27
2019-04-10T02:51:36.350Z,100199.73
2019-04-10T02:54:05.099Z,100206.06
2019-04-10T02:56:33.250Z,100213.19
2019-04-10T02:59:02.683Z,100199.86
2019-04-10T03:01:31.562Z,100211.30
2019-04-10T03:03:59.458Z,100210.98
2019-04-10T03:06:27.377Z,100211.41
2019-04-10T03:09:13.820Z,100214.89
2019-04-10T03:11:26.482Z,100217.29
2019-04-10T03:13:55.597Z,100222.63
2019-04-10T03:16:23.709Z,100216.98
2019-04-10T03:18:51.507Z,100224.55
2019-04-10T03:21:19.238Z,100224.12
2019-04-10T03:23:47.567Z,100224.03
2019-04-10T03:26:15.438Z,100220.14
2019-04-10T03:28:43.206Z,100232.50
2019-04-10T03:31:12.935Z,100232.25
2019-04-10T03:34:00.993Z,100235.92
2019-04-10T03:36:36.019Z,100236.59
2019-04-10T03:39:07.947Z,100236.13
2019-04-10T03:41:36.663Z,100234.38
2019-04-10T03:44:04.592Z,100230.55
2019-04-10T03:46:33.237Z,100234.96
2019-04-10T03:49:01.239Z,100233.84
2019-04-10T03:51:30.297Z,100235.33
2019-04-10T03:53:58.462Z,100235.47
2019-04-10T03:56:26.678Z,100234.92
2019-04-10T03:58:54.412Z,100234.74
2019-04-10T04:01:22.991Z,100238.40
2019-04-10T04:03:51.153Z,100237.83
2019-04-10T04:06:19.575Z,100242.62
2019-04-10T04:08:47.957Z,100245.95
2019-04-10T04:11:17.613Z,100249.34
2019-04-10T04:13:45.905Z,100247.67
2019-04-10T04:16:13.653Z,100252.20
2019-04-10T04:18:41.553Z,100246.80
2019-04-10T04:21:09.747Z,100250.13
2019-04-10T04:23:38.284Z,100252.75
2019-04-10T04:26:07.160Z,100251.03
2019-04-10T04:28:34.981Z,100253.41
2019-04-10T04:31:03.124Z,100256.91
2019-04-10T04:33:31.906Z,100250.39
2019-04-10T04:35:59.924Z,100249.18
2019-04-10T04:38:27.742Z,100257.96
2019-04-10T04:40:55.604Z,100256.74
2019-04-10T04:43:23.429Z,100259.97
2019-04-10T04:45:51.607Z,100266.44
2019-04-10T04:48:19.569Z,100257.65
2019-04-10T04:50:47.427Z,100262.49
2019-04-10T04:53:16.236Z,100263.59
2019-04-10T04:55:44.972Z,100267.63
2019-04-10T04:58:13.768Z,100261.09
2019-04-10T05:00:41.805Z,100275.52
2019-04-10T05:03:10.012Z,100270.42
2019-04-10T05:05:37.781Z,100274.53
2019-04-10T05:08:06.861Z,100272.25
2019-04-10T05:10:35.670Z,100272.00
2019-04-10T05:13:04.051Z,100279.64
2019-04-10T05:15:31.880Z,100276.61
2019-04-10T05:17:59.764Z,100278.47
2019-04-10T05:20:39.458Z,100284.97
2019-04-10T05:22:57.629Z,100280.59
2019-04-10T05:25:25.408Z,100279.27
2019-04-10T05:27:53.272Z,100285.06
2019-04-10T05:30:21.034Z,100301.06
2019-04-10T05:32:49.367Z,100292.83
2019-04-10T05:35:17.290Z,100285.91
2019-04-10T05:37:45.698Z,100296.02
2019-04-10T05:40:13.576Z,100298.84
2019-04-10T05:42:41.606Z,100293.80
2019-04-10T05:45:09.712Z,100293.50
2019-04-10T05:47:38.459Z,100293.78
2019-04-10T05:50:07.110Z,100288.14
2019-04-10T05:52:35.334Z,100294.81
2019-04-10T05:55:04.199Z,100294.60
2019-04-10T05:57:32.885Z,100293.48
2019-04-10T06:00:00.728Z,100301.55
2019-04-10T06:02:28.495Z,100305.69
2019-04-10T06:04:56.282Z,100301.69
2019-04-10T06:07:24.027Z,100300.06
2019-04-10T06:09:55.818Z,100297.64
2019-04-10T06:12:22.351Z,100300.27
2019-04-10T06:14:50.480Z,100299.44
2019-04-10T06:17:18.455Z,100300.89
2019-04-10T06:19:46.829Z,100296.97
2019-04-10T06:22:14.712Z,100300.11
2019-04-10T06:24:42.571Z,100302.63
2019-04-10T06:27:10.417Z,100302.86
2019-04-10T06:29:39.331Z,100302.86
2019-04-10T06:32:07.397Z,100301.08
2019-04-10T06:34:36.295Z,100296.55
2019-04-10T06:37:04.228Z,100296.50
2019-04-10T06:39:33.004Z,100294.57
2019-04-10T06:42:00.905Z,100304.67
2019-04-10T06:44:28.665Z,100301.45
2019-04-10T06:46:57.044Z,100307.84
2019-04-10T06:49:24.965Z,100305.66
2019-04-10T06:51:53.527Z,100307.92
2019-04-10T06:54:21.358Z,100308.02
2019-04-10T06:56:50.282Z,100303.64
2019-04-10T06:59:18.120Z,100299.83
2019-04-10T07:01:51.214Z,100303.39
2019-04-10T07:04:15.570Z,100304.55
2019-04-10T07:06:52.824Z,100306.83
2019-04-10T07:09:21.374Z,100310.23
2019-04-10T07:11:53.442Z,100305.08
2019-04-10T07:14:18.461Z,100308.12
2019-04-10T07:16:46.507Z,100312.13
2019-04-10T07:19:14.287Z,100308.88
2019-04-10T07:21:42.691Z,100312.99
2019-04-10T07:24:12.206Z,100310.07
2019-04-10T07:26:43.728Z,100314.87
2019-04-10T07:29:10.948Z,100311.37
2019-04-10T07:31:39.766Z,100310.39
2019-04-10T07:34:08.727Z,100307.28
2019-04-10T07:36:41.636Z,100316.27
2019-04-10T07:39:07.698Z,100320.27
2019-04-10T07:41:35.584Z,100313.28
2019-04-10T07:44:03.727Z,100314.67
2019-04-10T07:46:32.575Z,100321.17
2019-04-10T07:49:00.744Z,100321.34
2019-04-10T07:51:29.730Z,100320.45
2019-04-10T07:53:57.794Z,100319.14
2019-04-10T07:56:26.665Z,100312.47
2019-04-10T07:58:54.569Z,100302.28
2019-04-10T08:01:22.332Z,100301.63
2019-04-10T08:03:52.389Z,100301.28
2019-04-10T08:06:20.006Z,100289.95
2019-04-10T08:08:47.813Z,100301.44
2019-04-10T08:11:15.552Z,100303.25
2019-04-10T08:13:43.327Z,100300.20
2019-04-10T08:16:11.257Z,100303.34
2019-04-10T08:18:39.461Z,100295.10
2019-04-10T08:21:08.272Z,100308.12
2019-04-10T08:23:36.032Z,100306.62
2019-04-10T08:26:03.874Z,100307.04
2019-04-10T08:28:32.794Z,100306.42
2019-04-10T08:31:01.008Z,100318.61
2019-04-10T08:33:30.123Z,100314.93
2019-04-10T08:35:58.935Z,100307.51
2019-04-10T08:38:27.939Z,100302.75
2019-04-10T08:40:56.607Z,100307.98
2019-04-10T08:43:24.518Z,100309.92
2019-04-10T08:45:53.677Z,100310.97
2019-04-10T08:48:22.010Z,100304.09
2019-04-10T08:50:50.373Z,100305.34
2019-04-10T08:53:18.190Z,100296.36
2019-04-10T08:55:46.231Z,100296.33
2019-04-10T08:58:14.513Z,100297.75
2019-04-10T09:00:42.846Z,100302.77
2019-04-10T09:03:10.896Z,100300.49
2019-04-10T09:05:38.797Z,100301.44
2019-04-10T09:08:06.543Z,100294.08
2019-04-10T09:10:34.868Z,100301.89
2019-04-10T09:13:02.604Z,100290.09
2019-04-10T09:15:30.352Z,100298.56
2019-04-10T09:17:58.077Z,100291.20
2019-04-10T09:20:26.785Z,100291.83
2019-04-10T09:23:13.402Z,100289.02
2019-04-10T09:25:24.924Z,100286.88
2019-04-10T09:27:53.815Z,100287.47
2019-04-10T09:30:21.688Z,100277.44
2019-04-10T09:32:49.425Z,100285.50
2019-04-10T09:35:18.293Z,100284.78
2019-04-10T09:37:46.285Z,100284.00
2019-04-10T09:40:14.415Z,100284.39
2019-04-10T09:42:42.202Z,100289.64
2019-04-10T09:45:10.056Z,100280.03
2019-04-10T09:47:37.803Z,100291.34
2019-04-10T09:50:07.707Z,100287.92
2019-04-10T09:52:35.763Z,100292.50
2019-04-10T09:55:05.126Z,100297.00
2019-04-10T09:57:32.860Z,100290.11
2019-04-10T10:00:00.989Z,100280.38
2019-04-10T10:02:28.754Z,100286.27
2019-04-10T10:04:56.499Z,100274.81
2019-04-10T10:07:24.241Z,100284.93
2019-04-10T10:09:52.034Z,100275.64
2019-04-10T10:12:20.192Z,100273.86
2019-04-10T10:14:48.388Z,100275.38
2019-04-10T10:17:16.904Z,100271.23
2019-04-10T10:19:45.998Z,100275.23
2019-04-10T10:22:14.681Z,100271.19
2019-04-10T10:24:42.667Z,100273.69
2019-04-10T10:27:10.541Z,100267.86
2019-04-10T10:29:38.342Z,100261.17
2019-04-10T10:32:06.090Z,100265.86
2019-04-10T10:34:34.573Z,100270.50
2019-04-10T10:37:03.874Z,100266.88
2019-04-10T10:39:31.756Z,100256.03
2019-04-10T10:41:59.511Z,100264.19
2019-04-10T10:44:27.272Z,100273.13
2019-04-10T10:46:55.773Z,100276.55
2019-04-10T10:49:24.355Z,100266.25
2019-04-10T10:51:53.215Z,100271.21
2019-04-10T10:54:21.247Z,100276.91
2019-04-10T10:56:49.065Z,100271.37
2019-04-10T10:59:17.577Z,100261.23
2019-04-10T11:01:46.324Z,100262.64
2019-04-10T11:04:15.036Z,100259.55
2019-04-10T11:06:51.759Z,100259.02
2019-04-10T11:09:15.632Z,100264.84
2019-04-10T11:11:43.553Z,100259.58
2019-04-10T11:14:11.416Z,100267.37
2019-04-10T11:16:39.284Z,100263.03
2019-04-10T11:19:07.169Z,100256.64
2019-04-10T11:21:35.008Z,100260.66
2019-04-10T11:24:03.141Z,100259.91
2019-04-10T11:26:31.002Z,100262.12
2019-04-10T11:28:59.148Z,100251.83
2019-04-10T11:31:26.924Z,100255.85
2019-04-10T11:33:56.405Z,100260.40
2019-04-10T11:36:24.352Z,100257.91
2019-04-10T11:38:55.328Z,100252.21
2019-04-10T11:41:23.424Z,100251.16
2019-04-10T11:43:52.669Z,100249.09
2019-04-10T11:46:22.727Z,100248.68
2019-04-10T11:48:51.919Z,100272.02
2019-04-10T11:51:23.325Z,100259.62
2019-04-10T11:53:54.390Z,100258.36
2019-04-10T11:56:21.186Z,100257.30
2019-04-10T12:01:21.610Z,100248.59
2019-04-10T12:03:51.561Z,100258.97
2019-04-10T12:06:20.682Z,100251.58
2019-04-10T12:09:08.530Z,100258.19
2019-04-10T12:11:19.932Z,100250.55
2019-04-10T12:13:46.980Z,100250.85
2019-04-10T12:16:14.836Z,100264.34
2019-04-10T12:18:42.612Z,100258.19
2019-04-10T12:21:10.464Z,100268.05
2019-04-10T12:23:38.184Z,100257.36
2019-04-10T12:26:05.935Z,100263.13
2019-04-10T12:28:33.911Z,100258.28
2019-04-10T12:31:01.823Z,100250.41
2019-04-10T12:33:29.734Z,100250.87
2019-04-10T12:35:58.208Z,100249.11
2019-04-10T12:38:26.024Z,100243.19
2019-04-10T12:40:53.739Z,100239.02
2019-04-10T12:43:21.495Z,100256.30
2019-04-10T12:45:49.269Z,100253.92
2019-04-10T12:48:20.837Z,100252.40
2019-04-10T12:50:49.513Z,100247.64
2019-04-10T12:53:17.401Z,100252.06
2019-04-10T12:55:45.868Z,100242.36
2019-04-10T12:58:17.593Z,100249.56
2019-04-10T13:00:44.596Z,100248.03
2019-04-10T13:03:12.464Z,100242.94
2019-04-10T13:05:41.132Z,100250.46
2019-04-10T13:08:19.050Z,100254.68
2019-04-10T13:10:39.808Z,100263.82
2019-04-10T13:13:07.629Z,100256.31
2019-04-10T13:15:35.406Z,100251.05
2019-04-10T13:18:03.870Z,100249.27
2019-04-10T13:20:31.707Z,100242.00
2019-04-10T13:23:00.331Z,100249.17
2019-04-10T13:25:28.209Z,100245.30
2019-04-10T13:27:56.012Z,100247.34
2019-04-10T13:30:24.929Z,100230.73
2019-04-10T13:32:53.021Z,100240.11
2019-04-10T13:35:21.941Z,100241.50
2019-04-10T13:37:50.638Z,100250.89
2019-04-10T13:40:19.443Z,100245.41
2019-04-10T13:42:47.455Z,100253.78
2019-04-10T13:45:17.425Z,100244.87
2019-04-10T13:47:45.299Z,100251.91
2019-04-10T13:50:13.200Z,100247.84
2019-04-10T13:52:42.928Z,100252.31
2019-04-10T13:55:11.697Z,100248.38
2019-04-10T13:57:39.574Z,100249.26
2019-04-10T14:00:13.200Z,100248.36
2019-04-10T14:02:41.558Z,100248.30
2019-04-10T14:05:11.733Z,100245.51
2019-04-10T14:07:40.200Z,100247.48
2019-04-10T14:10:08.418Z,100249.41
2019-04-10T14:12:36.456Z,100246.31
2019-04-10T14:15:05.042Z,100249.05
2019-04-10T14:17:33.374Z,100243.44
2019-04-10T14:20:01.143Z,100241.50
2019-04-10T14:22:29.546Z,100235.80
2019-04-10T14:24:57.423Z,100242.72
2019-04-10T14:27:27.881Z,100252.94
2019-04-10T14:29:56.656Z,100238.03
2019-04-10T14:32:29.460Z,100252.49
2019-04-10T14:34:57.241Z,100242.08
2019-04-10T14:37:25.327Z,100255.02
2019-04-10T14:39:53.211Z,100273.25
2019-04-10T14:42:20.944Z,100269.35
2019-04-10T14:44:48.756Z,100274.14
2019-04-10T14:47:17.168Z,100282.73
2019-04-10T14:49:45.188Z,100271.49
2019-04-10T14:52:13.026Z,100277.59
2019-04-10T14:54:40.796Z,100270.09
2019-04-10T14:57:08.542Z,100280.34
2019-04-10T14:59:36.275Z,100275.34
2019-04-10T15:02:06.378Z,100275.25
2019-04-10T15:04:35.222Z,100282.11
2019-04-10T15:07:03.929Z,100274.91
2019-04-10T15:09:32.501Z,100279.31
2019-04-10T15:12:00.252Z,100274.34
2019-04-10T15:14:28.040Z,100278.36
2019-04-10T15:17:03.492Z,100292.59
2019-04-10T15:19:26.737Z,100287.27
2019-04-10T15:21:55.773Z,100287.45
2019-04-10T15:24:23.812Z,100291.84
2019-04-10T15:26:51.702Z,100289.83
2019-04-10T15:29:21.196Z,100305.34
2019-04-10T15:31:49.992Z,100305.00
2019-04-10T15:34:18.314Z,100297.53
2019-04-10T15:36:47.609Z,100299.05
2019-04-10T15:39:16.819Z,100298.16
2019-04-10T15:41:45.535Z,100296.06
2019-04-10T15:44:14.079Z,100296.75
2019-04-10T15:46:43.529Z,100306.66
2019-04-10T15:49:11.395Z,100303.73
2019-04-10T15:51:39.329Z,100295.16
2019-04-10T15:54:07.702Z,100299.61
2019-04-10T15:56:36.136Z,100305.83
2019-04-10T15:59:04.049Z,100302.73
2019-04-10T16:01:32.971Z,100303.16
2019-04-10T16:04:01.155Z,100310.67
2019-04-10T16:06:29.348Z,100304.05
2019-04-10T16:08:57.175Z,100306.13
2019-04-10T16:11:56.731Z,100308.44
2019-04-10T16:14:28.404Z,100315.61
2019-04-10T16:17:17.493Z,100317.31
2019-04-10T16:20:03.971Z,100310.23
2019-04-10T16:22:40.562Z,100315.29
2019-04-10T16:25:22.710Z,100320.42
2019-04-10T16:27:50.489Z,100323.27
2019-04-10T16:30:22.020Z,100322.37
2019-04-10T16:32:50.188Z,100318.96
2019-04-10T16:35:19.050Z,100324.34
2019-04-10T16:37:47.494Z,100314.92
2019-04-10T16:40:15.325Z,100324.37
2019-04-10T16:42:43.614Z,100320.26
2019-04-10T16:45:13.473Z,100324.70
2019-04-10T16:47:42.000Z,100324.98
2019-04-10T16:50:11.200Z,100330.27
2019-04-10T16:52:39.075Z,100327.22
2019-04-10T16:55:08.410Z,100333.69
2019-04-10T16:57:36.656Z,100327.73
2019-04-10T17:00:06.919Z,100332.84
2019-04-10T17:02:35.995Z,100337.45
2019-04-10T17:05:05.981Z,100343.31
2019-04-10T17:07:34.866Z,100334.00
2019-04-10T17:10:13.090Z,100340.31
2019-04-10T17:12:34.123Z,100339.54
2019-04-10T17:15:02.088Z,100346.75
2019-04-10T17:17:30.537Z,100346.31
2019-04-10T17:19:59.498Z,100357.48
2019-04-10T17:22:32.338Z,100357.33
2019-04-10T17:24:57.880Z,100356.36
2019-04-10T17:27:25.819Z,100360.32
2019-04-10T17:29:55.239Z,100368.50
2019-04-10T17:32:23.504Z,100361.16
2019-04-10T17:34:51.518Z,100367.38
2019-04-10T17:37:19.442Z,100368.70
2019-04-10T17:39:47.378Z,100378.63
2019-04-10T17:42:16.449Z,100376.76
2019-04-10T17:44:45.576Z,100384.28
2019-04-10T17:47:14.431Z,100387.39
2019-04-10T17:49:43.400Z,100387.00
2019-04-10T17:52:11.334Z,100388.00
2019-04-10T17:54:39.189Z,100391.78
2019-04-10T17:57:06.977Z,100396.70
2019-04-10T17:59:34.955Z,100396.94
2019-04-10T18:02:07.520Z,100400.98
2019-04-10T18:04:35.369Z,100407.55
2019-04-10T18:07:03.868Z,100414.84
2019-04-10T18:09:32.741Z,100415.53
2019-04-10T18:12:01.084Z,100419.27
2019-04-10T18:14:29.140Z,100430.48
2019-04-10T18:16:58.152Z,100423.45
2019-04-10T18:19:26.034Z,100428.86
2019-04-10T18:21:54.192Z,100435.64
2019-04-10T18:24:22.156Z,100438.56
2019-04-10T18:26:52.312Z,100451.30
2019-04-10T18:29:19.664Z,100451.19
2019-04-10T18:31:47.437Z,100455.45
2019-04-10T18:34:15.506Z,100459.14
2019-04-10T18:36:46.301Z,100458.86
2019-04-10T18:39:18.303Z,100466.50
2019-04-10T18:41:46.706Z,100470.75
2019-04-10T18:44:15.050Z,100477.05
2019-04-10T18:46:43.753Z,100476.22
2019-04-10T18:49:11.565Z,100483.77
2019-04-10T18:51:40.373Z,100487.81
2019-04-10T18:54:10.811Z,100489.03
2019-04-10T18:56:37.889Z,100493.90
2019-04-10T18:59:12.390Z,100497.28
2019-04-10T19:01:49.381Z,100501.91
2019-04-10T19:04:39.225Z,100492.26
2019-04-10T19:07:07.113Z,100508.10
2019-04-10T19:09:36.864Z,100509.81
2019-04-10T19:12:04.702Z,100507.53
2019-04-10T19:14:36.205Z,100515.78
2019-04-10T19:17:03.687Z,100522.56
2019-04-10T19:19:32.389Z,100520.39
2019-04-10T19:22:00.297Z,100527.59
2019-04-10T19:24:30.219Z,100531.16
2019-04-10T19:26:58.171Z,100532.80
2019-04-10T19:29:25.931Z,100531.08
2019-04-10T19:31:56.393Z,100541.53
2019-04-10T19:34:25.322Z,100544.12
2019-04-10T19:36:54.328Z,100538.98
2019-04-10T19:39:22.367Z,100548.52
2019-04-10T19:41:50.983Z,100547.57
2019-04-10T19:44:19.077Z,100553.08
2019-04-10T19:46:48.027Z,100555.33
2019-04-10T19:49:16.369Z,100559.44
2019-04-10T19:51:44.176Z,100557.20
2019-04-10T19:54:11.987Z,100557.97
2019-04-10T19:56:40.512Z,100557.80
2019-04-10T19:59:08.451Z,100554.16
2019-04-10T20:01:36.269Z,100549.04
2019-04-10T20:04:04.069Z,100555.50
2019-04-10T20:06:32.211Z,100558.08
2019-04-10T20:09:00.157Z,100555.70
2019-04-10T20:11:37.532Z,100557.94
2019-04-10T20:13:59.999Z,100562.86
2019-04-10T20:16:27.268Z,100561.22
2019-04-10T20:18:55.029Z,100562.56
2019-04-10T20:21:23.829Z,100564.48
2019-04-10T20:23:52.333Z,100569.86
2019-04-10T20:26:21.050Z,100574.45
2019-04-10T20:28:49.750Z,100575.27
2019-04-10T20:31:24.161Z,100575.16
2019-04-10T20:33:51.937Z,100569.09
2019-04-10T20:36:20.587Z,100576.49
2019-04-10T20:38:48.471Z,100580.31
2019-04-10T20:41:16.304Z,100586.17
2019-04-10T20:43:44.848Z,100586.45
2019-04-10T20:46:13.767Z,100588.95
2019-04-10T20:48:41.629Z,100592.89
2019-04-10T20:51:10.292Z,100593.84
2019-04-10T20:53:38.074Z,100602.44
2019-04-10T20:56:06.250Z,100595.39
2019-04-10T20:58:34.101Z,100602.81
2019-04-10T21:01:01.876Z,100606.57
2019-04-10T21:03:31.766Z,100603.58
2019-04-10T21:06:00.456Z,100611.20
2019-04-10T21:08:28.217Z,100610.33
2019-04-10T21:10:56.964Z,100601.67
2019-04-10T21:13:25.380Z,100608.25
2019-04-10T21:15:53.301Z,100617.06
2019-04-10T21:18:22.152Z,100615.34
2019-04-10T21:20:50.011Z,100617.52
2019-04-10T21:23:17.811Z,100627.55
2019-04-10T21:25:45.658Z,100628.69
2019-04-10T21:28:14.131Z,100628.45
2019-04-10T21:30:53.110Z,100628.30
2019-04-10T21:33:26.655Z,100632.23
2019-04-10T21:35:54.435Z,100637.16
2019-04-10T21:38:22.171Z,100648.47
2019-04-10T21:40:49.890Z,100639.66
2019-04-10T21:43:18.554Z,100644.61
2019-04-10T21:45:47.569Z,100648.56
2019-04-10T21:48:15.383Z,100645.11
2019-04-10T21:50:43.946Z,100649.81
2019-04-10T21:53:12.227Z,100652.11
2019-04-10T21:55:40.021Z,100656.91
2019-04-10T21:58:08.177Z,100652.21
2019-04-10T22:00:54.015Z,100657.84
2019-04-10T22:03:22.305Z,100659.27
2019-04-10T22:05:55.342Z,100664.44
2019-04-10T22:08:33.648Z,100667.43
2019-04-10T22:11:01.445Z,100673.05
2019-04-10T22:13:30.185Z,100667.41
2019-04-10T22:15:59.572Z,100667.41
2019-04-10T22:18:27.561Z,100668.64
2019-04-10T22:20:57.078Z,100675.56
2019-04-10T22:23:24.967Z,100670.41
2019-04-10T22:25:52.817Z,100670.76
2019-04-10T22:28:21.124Z,100670.09
2019-04-10T22:30:50.593Z,100669.97
2019-04-10T22:33:18.537Z,100667.59
2019-04-10T22:35:46.357Z,100673.27
2019-04-10T22:38:15.179Z,100674.69
2019-04-10T22:40:44.155Z,100670.67
2019-04-10T22:43:11.983Z,100670.67
2019-04-10T22:45:40.179Z,100675.54
2019-04-10T22:48:08.348Z,100677.53
2019-04-10T22:50:36.524Z,100678.96
2019-04-10T22:53:04.716Z,100681.44
2019-04-10T22:55:33.729Z,100680.59
2019-04-10T22:58:02.527Z,100685.72
2019-04-10T23:00:30.851Z,100686.25
2019-04-10T23:02:58.855Z,100682.86
2019-04-10T23:05:28.701Z,100685.55
2019-04-10T23:07:56.978Z,100686.84
2019-04-10T23:10:24.906Z,100694.34
2019-04-10T23:12:59.985Z,100700.17
2019-04-10T23:15:23.114Z,100695.50
2019-04-10T23:17:50.987Z,100700.30
2019-04-10T23:20:18.721Z,100707.18
2019-04-10T23:22:48.518Z,100705.78
2019-04-10T23:25:16.185Z,100708.28
2019-04-10T23:27:44.100Z,100711.27
2019-04-10T23:30:15.592Z,100714.61
2019-04-10T23:32:43.610Z,100725.16
2019-04-10T23:35:11.608Z,100714.16
2019-04-10T23:37:39.470Z,100712.17
2019-04-10T23:40:08.363Z,100719.55
2019-04-10T23:42:36.243Z,100726.72
2019-04-10T23:45:05.158Z,100728.23
2019-04-10T23:47:34.023Z,100725.25
2019-04-10T23:50:01.991Z,100734.28
2019-04-10T23:52:29.792Z,100724.13
2019-04-10T23:54:57.622Z,100734.63
2019-04-10T23:57:25.451Z,100738.46
2019-04-10T23:59:53.199Z,100733.79
